Cross Lake, Canada
Current Conditions -  °F | °C
As of 4:00 AM on Tuesday 27 Jan 2015 (Local Time) from CYNE Reporting Station
Clear Clear  
Wind Chill:   Ceiling: Unl
Heat Index: 19°   Visibility: 9mi
Dew Point: 18°   Wind: 9mph
Humidity: 93%   Direction: 200°SSW
Pressure: 29.81"   Gusts: NA
Location:  54.62°N, 97.78°W
Report Text: CYNE 271000Z AUTO 20008KT 9SM CLR M07/M08 A2981 RMK SLP114
Loading
Personal Weather Stations






























Interactive Weather Map New forecast layout! Learn more

10-Day Weather Forecast

Advertisements
Track Severe Weather on mobile